Terminal Aerodrome Forecast
Issued by NWS Brownsville, TX

Home | Current Version | Previous Version | Text Only | Print | Product List | Glossary On
Versions: 1 2 3 4 5 6 7 8 9 10 11 12
000
FTUS44 KBRO 261100
TAFMFE
TAF
KMFE 261129Z 2612/2712 16008KT P6SM FEW025
     FM261500 16014KT P6SM FEW035
     FM261800 15018G25KT P6SM FEW050
     FM270300 14012KT P6SM SKC=

USA.gov is the U.S. government's official web portal to all federal, state and local government web resources and services.